sensor_id;sensor_type;location;lat;lon;timestamp;P1;durP1;ratioP1;P2;durP2;ratioP2
11711;SDS011;5912;51.034;6.984;2022-12-18T00:00:49;8.03;;;5.20;;
11711;SDS011;5912;51.034;6.984;2022-12-18T00:03:39;7.00;;;4.80;;
11711;SDS011;5912;51.034;6.984;2022-12-18T00:06:51;7.43;;;4.77;;
11711;SDS011;5912;51.034;6.984;2022-12-18T00:10:01;8.47;;;4.77;;
11711;SDS011;5912;51.034;6.984;2022-12-18T00:13:01;7.73;;;5.20;;
11711;SDS011;5912;51.034;6.984;2022-12-18T00:15:50;7.30;;;4.97;;
11711;SDS011;5912;51.034;6.984;2022-12-18T00:18:56;8.13;;;5.00;;
11711;SDS011;5912;51.034;6.984;2022-12-18T00:28:11;7.57;;;4.40;;
11711;SDS011;5912;51.034;6.984;2022-12-18T00:30:43;8.73;;;5.37;;
11711;SDS011;5912;51.034;6.984;2022-12-18T00:33:15;7.87;;;5.57;;
11711;SDS011;5912;51.034;6.984;2022-12-18T00:36:19;6.27;;;4.50;;
11711;SDS011;5912;51.034;6.984;2022-12-18T00:39:03;8.63;;;5.17;;
11711;SDS011;5912;51.034;6.984;2022-12-18T00:41:41;8.30;;;4.97;;
11711;SDS011;5912;51.034;6.984;2022-12-18T00:44:27;7.00;;;4.47;;
11711;SDS011;5912;51.034;6.984;2022-12-18T00:47:22;7.60;;;4.70;;
11711;SDS011;5912;51.034;6.984;2022-12-18T00:50:17;6.60;;;4.60;;
11711;SDS011;5912;51.034;6.984;2022-12-18T00:53:11;7.47;;;4.50;;
11711;SDS011;5912;51.034;6.984;2022-12-18T00:55:52;7.67;;;4.57;;
11711;SDS011;5912;51.034;6.984;2022-12-18T00:58:26;8.03;;;4.80;;
11711;SDS011;5912;51.034;6.984;2022-12-18T01:01:04;7.70;;;4.73;;
11711;SDS011;5912;51.034;6.984;2022-12-18T01:03:36;8.43;;;4.83;;
11711;SDS011;5912;51.034;6.984;2022-12-18T01:06:06;8.43;;;4.90;;
11711;SDS011;5912;51.034;6.984;2022-12-18T01:08:43;7.50;;;4.80;;
11711;SDS011;5912;51.034;6.984;2022-12-18T01:11:27;8.67;;;5.10;;
11711;SDS011;5912;51.034;6.984;2022-12-18T01:13:56;6.80;;;4.70;;
11711;SDS011;5912;51.034;6.984;2022-12-18T01:16:26;7.33;;;4.47;;
11711;SDS011;5912;51.034;6.984;2022-12-18T01:19:01;7.03;;;4.73;;
11711;SDS011;5912;51.034;6.984;2022-12-18T01:24:58;5.67;;;3.93;;
11711;SDS011;5912;51.034;6.984;2022-12-18T01:31:24;6.80;;;4.67;;
11711;SDS011;5912;51.034;6.984;2022-12-18T01:34:06;8.13;;;5.00;;
11711;SDS011;5912;51.034;6.984;2022-12-18T01:36:40;6.93;;;4.60;;
11711;SDS011;5912;51.034;6.984;2022-12-18T01:42:34;8.60;;;5.67;;
11711;SDS011;5912;51.034;6.984;2022-12-18T01:45:39;7.90;;;4.57;;
11711;SDS011;5912;51.034;6.984;2022-12-18T01:48:34;7.53;;;4.43;;
11711;SDS011;5912;51.034;6.984;2022-12-18T01:51:24;6.40;;;4.60;;
11711;SDS011;5912;51.034;6.984;2022-12-18T01:54:07;8.37;;;4.67;;
11711;SDS011;5912;51.034;6.984;2022-12-18T01:56:38;6.03;;;4.13;;
11711;SDS011;5912;51.034;6.984;2022-12-18T01:59:14;8.00;;;5.07;;
11711;SDS011;5912;51.034;6.984;2022-12-18T02:01:44;8.00;;;4.50;;
11711;SDS011;5912;51.034;6.984;2022-12-18T02:06:53;7.07;;;4.90;;
11711;SDS011;5912;51.034;6.984;2022-12-18T02:09:43;7.23;;;4.67;;
11711;SDS011;5912;51.034;6.984;2022-12-18T02:12:41;8.17;;;4.57;;
11711;SDS011;5912;51.034;6.984;2022-12-18T02:15:57;6.83;;;4.63;;
11711;SDS011;5912;51.034;6.984;2022-12-18T02:18:53;7.23;;;4.77;;
11711;SDS011;5912;51.034;6.984;2022-12-18T02:21:57;7.43;;;4.60;;
11711;SDS011;5912;51.034;6.984;2022-12-18T02:27:46;6.37;;;4.30;;
11711;SDS011;5912;51.034;6.984;2022-12-18T02:30:19;7.50;;;5.13;;
11711;SDS011;5912;51.034;6.984;2022-12-18T02:32:58;7.43;;;4.73;;
11711;SDS011;5912;51.034;6.984;2022-12-18T02:35:46;6.30;;;4.50;;
11711;SDS011;5912;51.034;6.984;2022-12-18T02:38:59;6.97;;;5.27;;
11711;SDS011;5912;51.034;6.984;2022-12-18T02:41:37;8.30;;;5.10;;
11711;SDS011;5912;51.034;6.984;2022-12-18T02:44:35;6.90;;;4.77;;
11711;SDS011;5912;51.034;6.984;2022-12-18T02:50:35;7.40;;;4.70;;
11711;SDS011;5912;51.034;6.984;2022-12-18T02:54:43;7.00;;;4.70;;
11711;SDS011;5912;51.034;6.984;2022-12-18T02:57:53;7.37;;;5.00;;
11711;SDS011;5912;51.034;6.984;2022-12-18T03:03:05;9.40;;;4.67;;
11711;SDS011;5912;51.034;6.984;2022-12-18T03:08:29;7.90;;;4.63;;
11711;SDS011;5912;51.034;6.984;2022-12-18T03:11:11;6.10;;;4.63;;
11711;SDS011;5912;51.034;6.984;2022-12-18T03:16:27;8.67;;;5.03;;
11711;SDS011;5912;51.034;6.984;2022-12-18T03:19:31;6.90;;;4.83;;
11711;SDS011;5912;51.034;6.984;2022-12-18T03:22:12;7.13;;;4.90;;
11711;SDS011;5912;51.034;6.984;2022-12-18T03:24:50;6.67;;;4.63;;
11711;SDS011;5912;51.034;6.984;2022-12-18T03:27:46;5.87;;;4.40;;
11711;SDS011;5912;51.034;6.984;2022-12-18T03:30:23;7.20;;;4.50;;
11711;SDS011;5912;51.034;6.984;2022-12-18T03:33:31;7.70;;;5.07;;
11711;SDS011;5912;51.034;6.984;2022-12-18T03:36:34;8.20;;;5.47;;
11711;SDS011;5912;51.034;6.984;2022-12-18T03:45:43;7.70;;;5.00;;
11711;SDS011;5912;51.034;6.984;2022-12-18T03:48:59;7.07;;;4.57;;
11711;SDS011;5912;51.034;6.984;2022-12-18T03:52:26;6.27;;;4.20;;
11711;SDS011;5912;51.034;6.984;2022-12-18T03:59:22;7.30;;;4.13;;
11711;SDS011;5912;51.034;6.984;2022-12-18T04:02:43;6.37;;;4.10;;
11711;SDS011;5912;51.034;6.984;2022-12-18T04:26:00;7.43;;;4.53;;
11711;SDS011;5912;51.034;6.984;2022-12-18T04:29:00;6.93;;;4.27;;
11711;SDS011;5912;51.034;6.984;2022-12-18T04:32:05;5.93;;;4.10;;
11711;SDS011;5912;51.034;6.984;2022-12-18T04:34:49;7.20;;;4.37;;
11711;SDS011;5912;51.034;6.984;2022-12-18T04:41:21;6.83;;;4.67;;
11711;SDS011;5912;51.034;6.984;2022-12-18T04:47:19;7.17;;;4.63;;
11711;SDS011;5912;51.034;6.984;2022-12-18T04:50:55;5.93;;;3.90;;
11711;SDS011;5912;51.034;6.984;2022-12-18T04:53:43;6.00;;;4.17;;
11711;SDS011;5912;51.034;6.984;2022-12-18T04:56:24;5.93;;;3.90;;
11711;SDS011;5912;51.034;6.984;2022-12-18T04:59:19;8.20;;;4.60;;
11711;SDS011;5912;51.034;6.984;2022-12-18T05:12:39;7.13;;;4.30;;
11711;SDS011;5912;51.034;6.984;2022-12-18T05:15:30;5.77;;;4.03;;
11711;SDS011;5912;51.034;6.984;2022-12-18T05:18:06;7.37;;;4.50;;
11711;SDS011;5912;51.034;6.984;2022-12-18T05:21:31;6.57;;;4.33;;
11711;SDS011;5912;51.034;6.984;2022-12-18T05:24:48;6.10;;;4.30;;
11711;SDS011;5912;51.034;6.984;2022-12-18T05:49:38;5.80;;;4.03;;
11711;SDS011;5912;51.034;6.984;2022-12-18T05:56:50;6.27;;;4.23;;
11711;SDS011;5912;51.034;6.984;2022-12-18T06:03:33;6.10;;;3.93;;
11711;SDS011;5912;51.034;6.984;2022-12-18T06:13:54;6.13;;;3.93;;
11711;SDS011;5912;51.034;6.984;2022-12-18T06:28:04;5.90;;;4.00;;
11711;SDS011;5912;51.034;6.984;2022-12-18T06:31:22;7.10;;;4.37;;
11711;SDS011;5912;51.034;6.984;2022-12-18T06:34:34;6.73;;;4.47;;
11711;SDS011;5912;51.034;6.984;2022-12-18T06:37:41;7.50;;;4.97;;
11711;SDS011;5912;51.034;6.984;2022-12-18T06:40:18;7.87;;;4.83;;
11711;SDS011;5912;51.034;6.984;2022-12-18T06:43:39;8.33;;;5.23;;
11711;SDS011;5912;51.034;6.984;2022-12-18T06:46:42;6.33;;;4.30;;
11711;SDS011;5912;51.034;6.984;2022-12-18T06:49:25;6.80;;;4.60;;
11711;SDS011;5912;51.034;6.984;2022-12-18T06:56:10;7.30;;;4.73;;
11711;SDS011;5912;51.034;6.984;2022-12-18T06:59:26;7.37;;;4.60;;
11711;SDS011;5912;51.034;6.984;2022-12-18T07:01:59;9.40;;;5.20;;
11711;SDS011;5912;51.034;6.984;2022-12-18T07:05:03;7.07;;;4.17;;
11711;SDS011;5912;51.034;6.984;2022-12-18T07:11:39;7.70;;;4.80;;
11711;SDS011;5912;51.034;6.984;2022-12-18T07:14:10;8.90;;;5.23;;
11711;SDS011;5912;51.034;6.984;2022-12-18T07:17:01;8.70;;;5.07;;
11711;SDS011;5912;51.034;6.984;2022-12-18T07:19:29;7.10;;;4.83;;
11711;SDS011;5912;51.034;6.984;2022-12-18T07:22:17;6.77;;;4.67;;
11711;SDS011;5912;51.034;6.984;2022-12-18T07:24:53;7.60;;;5.10;;
11711;SDS011;5912;51.034;6.984;2022-12-18T07:27:35;8.00;;;4.90;;
11711;SDS011;5912;51.034;6.984;2022-12-18T07:30:13;6.50;;;4.90;;
11711;SDS011;5912;51.034;6.984;2022-12-18T07:32:52;8.30;;;5.50;;
11711;SDS011;5912;51.034;6.984;2022-12-18T07:35:25;8.83;;;5.53;;
11711;SDS011;5912;51.034;6.984;2022-12-18T07:38:08;7.60;;;5.03;;
11711;SDS011;5912;51.034;6.984;2022-12-18T07:40:39;8.50;;;5.57;;
11711;SDS011;5912;51.034;6.984;2022-12-18T07:43:15;7.17;;;5.40;;
11711;SDS011;5912;51.034;6.984;2022-12-18T07:45:45;9.33;;;5.43;;
11711;SDS011;5912;51.034;6.984;2022-12-18T07:51:03;8.43;;;5.33;;
11711;SDS011;5912;51.034;6.984;2022-12-18T07:53:34;9.60;;;5.67;;
11711;SDS011;5912;51.034;6.984;2022-12-18T07:56:05;9.57;;;5.73;;
11711;SDS011;5912;51.034;6.984;2022-12-18T07:58:43;8.53;;;5.33;;
11711;SDS011;5912;51.034;6.984;2022-12-18T08:01:16;7.30;;;5.40;;
11711;SDS011;5912;51.034;6.984;2022-12-18T08:03:45;8.57;;;5.70;;
11711;SDS011;5912;51.034;6.984;2022-12-18T08:06:22;8.70;;;5.33;;
11711;SDS011;5912;51.034;6.984;2022-12-18T08:08:58;7.97;;;5.43;;
11711;SDS011;5912;51.034;6.984;2022-12-18T08:14:55;8.87;;;5.37;;
11711;SDS011;5912;51.034;6.984;2022-12-18T08:17:23;8.87;;;5.97;;
11711;SDS011;5912;51.034;6.984;2022-12-18T08:19:56;9.77;;;6.27;;
11711;SDS011;5912;51.034;6.984;2022-12-18T08:25:22;7.83;;;5.33;;
11711;SDS011;5912;51.034;6.984;2022-12-18T08:31:06;10.53;;;6.17;;
11711;SDS011;5912;51.034;6.984;2022-12-18T08:33:50;8.13;;;5.30;;
11711;SDS011;5912;51.034;6.984;2022-12-18T08:36:20;8.57;;;5.47;;
11711;SDS011;5912;51.034;6.984;2022-12-18T08:38:53;8.17;;;5.50;;
11711;SDS011;5912;51.034;6.984;2022-12-18T08:41:40;8.37;;;5.47;;
11711;SDS011;5912;51.034;6.984;2022-12-18T08:44:41;8.60;;;5.60;;
11711;SDS011;5912;51.034;6.984;2022-12-18T08:47:07;8.40;;;5.00;;
11711;SDS011;5912;51.034;6.984;2022-12-18T08:49:57;10.80;;;6.17;;
11711;SDS011;5912;51.034;6.984;2022-12-18T08:52:27;8.77;;;5.57;;
11711;SDS011;5912;51.034;6.984;2022-12-18T08:55:03;8.37;;;6.03;;
11711;SDS011;5912;51.034;6.984;2022-12-18T08:57:33;12.07;;;6.50;;
11711;SDS011;5912;51.034;6.984;2022-12-18T09:00:17;8.60;;;5.30;;
11711;SDS011;5912;51.034;6.984;2022-12-18T09:02:49;9.10;;;5.90;;
11711;SDS011;5912;51.034;6.984;2022-12-18T09:05:17;7.83;;;5.30;;
11711;SDS011;5912;51.034;6.984;2022-12-18T09:07:48;9.40;;;5.83;;
11711;SDS011;5912;51.034;6.984;2022-12-18T09:10:17;9.37;;;5.90;;
11711;SDS011;5912;51.034;6.984;2022-12-18T09:12:46;9.83;;;6.30;;
11711;SDS011;5912;51.034;6.984;2022-12-18T09:15:25;7.47;;;5.43;;
11711;SDS011;5912;51.034;6.984;2022-12-18T09:17:59;8.93;;;5.37;;
11711;SDS011;5912;51.034;6.984;2022-12-18T09:20:48;8.70;;;5.60;;
11711;SDS011;5912;51.034;6.984;2022-12-18T09:23:24;10.47;;;5.73;;
11711;SDS011;5912;51.034;6.984;2022-12-18T09:25:51;9.07;;;5.70;;
11711;SDS011;5912;51.034;6.984;2022-12-18T09:28:32;7.60;;;5.33;;
11711;SDS011;5912;51.034;6.984;2022-12-18T09:31:13;9.47;;;5.90;;
11711;SDS011;5912;51.034;6.984;2022-12-18T09:33:39;8.73;;;5.57;;
11711;SDS011;5912;51.034;6.984;2022-12-18T09:36:11;9.53;;;5.87;;
11711;SDS011;5912;51.034;6.984;2022-12-18T09:38:57;8.20;;;5.47;;
11711;SDS011;5912;51.034;6.984;2022-12-18T09:41:32;8.00;;;5.47;;
11711;SDS011;5912;51.034;6.984;2022-12-18T09:44:33;10.53;;;6.33;;
11711;SDS011;5912;51.034;6.984;2022-12-18T09:49:53;7.87;;;5.03;;
11711;SDS011;5912;51.034;6.984;2022-12-18T09:55:46;7.83;;;5.50;;
11711;SDS011;5912;51.034;6.984;2022-12-18T09:58:24;8.97;;;6.00;;
11711;SDS011;5912;51.034;6.984;2022-12-18T10:01:31;7.97;;;5.40;;
11711;SDS011;5912;51.034;6.984;2022-12-18T10:04:31;7.87;;;5.27;;
11711;SDS011;5912;51.034;6.984;2022-12-18T10:10:53;7.20;;;4.40;;
11711;SDS011;5912;51.034;6.984;2022-12-18T10:26:03;9.47;;;5.53;;
11711;SDS011;5912;51.034;6.984;2022-12-18T10:28:34;6.63;;;4.70;;
11711;SDS011;5912;51.034;6.984;2022-12-18T10:31:27;7.60;;;4.70;;
11711;SDS011;5912;51.034;6.984;2022-12-18T10:34:04;7.37;;;4.90;;
11711;SDS011;5912;51.034;6.984;2022-12-18T10:36:47;7.80;;;5.20;;
11711;SDS011;5912;51.034;6.984;2022-12-18T10:39:44;6.73;;;4.60;;
11711;SDS011;5912;51.034;6.984;2022-12-18T10:42:40;8.67;;;5.67;;
11711;SDS011;5912;51.034;6.984;2022-12-18T10:45:16;7.30;;;5.20;;
11711;SDS011;5912;51.034;6.984;2022-12-18T10:54:18;8.20;;;5.13;;
11711;SDS011;5912;51.034;6.984;2022-12-18T10:57:14;8.20;;;5.40;;
11711;SDS011;5912;51.034;6.984;2022-12-18T11:00:24;9.00;;;5.70;;
11711;SDS011;5912;51.034;6.984;2022-12-18T11:03:07;7.40;;;4.80;;
11711;SDS011;5912;51.034;6.984;2022-12-18T11:06:07;8.77;;;6.17;;
11711;SDS011;5912;51.034;6.984;2022-12-18T11:08:37;8.63;;;5.70;;
11711;SDS011;5912;51.034;6.984;2022-12-18T11:14:33;8.63;;;5.70;;
11711;SDS011;5912;51.034;6.984;2022-12-18T11:17:33;9.27;;;5.77;;
11711;SDS011;5912;51.034;6.984;2022-12-18T11:20:04;7.63;;;5.77;;
11711;SDS011;5912;51.034;6.984;2022-12-18T11:25:59;7.80;;;5.23;;
11711;SDS011;5912;51.034;6.984;2022-12-18T11:28:46;7.67;;;5.60;;
11711;SDS011;5912;51.034;6.984;2022-12-18T11:31:28;10.23;;;5.70;;
11711;SDS011;5912;51.034;6.984;2022-12-18T11:40:09;8.67;;;5.33;;
11711;SDS011;5912;51.034;6.984;2022-12-18T11:45:53;8.63;;;5.93;;
11711;SDS011;5912;51.034;6.984;2022-12-18T11:52:18;7.97;;;6.23;;
11711;SDS011;5912;51.034;6.984;2022-12-18T11:54:29;10.20;;;5.90;;
11711;SDS011;5912;51.034;6.984;2022-12-18T11:57:06;7.63;;;5.77;;
11711;SDS011;5912;51.034;6.984;2022-12-18T12:24:57;10.00;;;6.87;;
11711;SDS011;5912;51.034;6.984;2022-12-18T12:39:47;11.00;;;6.97;;
11711;SDS011;5912;51.034;6.984;2022-12-18T12:42:40;10.57;;;7.00;;
11711;SDS011;5912;51.034;6.984;2022-12-18T12:49:11;9.73;;;6.37;;
11711;SDS011;5912;51.034;6.984;2022-12-18T12:52:15;9.57;;;6.83;;
11711;SDS011;5912;51.034;6.984;2022-12-18T12:54:58;12.00;;;7.23;;
11711;SDS011;5912;51.034;6.984;2022-12-18T12:57:34;14.10;;;8.17;;
11711;SDS011;5912;51.034;6.984;2022-12-18T13:00:29;10.53;;;7.27;;
11711;SDS011;5912;51.034;6.984;2022-12-18T13:13:17;10.83;;;7.20;;
11711;SDS011;5912;51.034;6.984;2022-12-18T13:16:22;12.90;;;7.90;;
11711;SDS011;5912;51.034;6.984;2022-12-18T13:18:57;11.17;;;7.63;;
11711;SDS011;5912;51.034;6.984;2022-12-18T13:21:29;14.43;;;7.97;;
11711;SDS011;5912;51.034;6.984;2022-12-18T13:23:57;10.77;;;7.30;;
11711;SDS011;5912;51.034;6.984;2022-12-18T13:26:51;12.90;;;7.90;;
11711;SDS011;5912;51.034;6.984;2022-12-18T13:29:42;12.00;;;7.67;;
11711;SDS011;5912;51.034;6.984;2022-12-18T13:32:46;11.40;;;7.20;;
11711;SDS011;5912;51.034;6.984;2022-12-18T13:41:28;12.57;;;7.90;;
11711;SDS011;5912;51.034;6.984;2022-12-18T13:43:55;12.60;;;8.00;;
11711;SDS011;5912;51.034;6.984;2022-12-18T13:52:20;14.30;;;8.93;;
11711;SDS011;5912;51.034;6.984;2022-12-18T13:54:59;12.07;;;7.93;;
11711;SDS011;5912;51.034;6.984;2022-12-18T13:57:37;13.90;;;8.83;;
11711;SDS011;5912;51.034;6.984;2022-12-18T14:03:39;12.40;;;7.97;;
11711;SDS011;5912;51.034;6.984;2022-12-18T14:06:18;14.10;;;8.67;;
11711;SDS011;5912;51.034;6.984;2022-12-18T14:08:45;12.07;;;7.60;;
11711;SDS011;5912;51.034;6.984;2022-12-18T14:15:06;12.40;;;7.93;;
11711;SDS011;5912;51.034;6.984;2022-12-18T14:18:45;12.23;;;7.57;;
11711;SDS011;5912;51.034;6.984;2022-12-18T14:27:37;13.63;;;8.67;;
11711;SDS011;5912;51.034;6.984;2022-12-18T14:33:27;14.37;;;9.00;;
11711;SDS011;5912;51.034;6.984;2022-12-18T14:35:56;14.87;;;9.17;;
11711;SDS011;5912;51.034;6.984;2022-12-18T14:38:39;13.10;;;8.70;;
11711;SDS011;5912;51.034;6.984;2022-12-18T14:41:06;11.40;;;8.03;;
11711;SDS011;5912;51.034;6.984;2022-12-18T14:43:36;12.43;;;8.47;;
11711;SDS011;5912;51.034;6.984;2022-12-18T14:46:04;13.07;;;8.20;;
11711;SDS011;5912;51.034;6.984;2022-12-18T14:48:50;13.00;;;8.23;;
11711;SDS011;5912;51.034;6.984;2022-12-18T14:51:16;14.03;;;8.73;;
11711;SDS011;5912;51.034;6.984;2022-12-18T14:56:29;13.83;;;8.97;;
11711;SDS011;5912;51.034;6.984;2022-12-18T14:59:00;14.07;;;8.90;;
11711;SDS011;5912;51.034;6.984;2022-12-18T15:01:32;12.87;;;8.23;;
11711;SDS011;5912;51.034;6.984;2022-12-18T15:04:00;13.77;;;8.60;;
11711;SDS011;5912;51.034;6.984;2022-12-18T15:08:57;16.07;;;9.03;;
11711;SDS011;5912;51.034;6.984;2022-12-18T15:11:25;14.13;;;8.73;;
11711;SDS011;5912;51.034;6.984;2022-12-18T15:13:58;12.67;;;7.97;;
11711;SDS011;5912;51.034;6.984;2022-12-18T15:16:24;12.27;;;8.63;;
11711;SDS011;5912;51.034;6.984;2022-12-18T15:18:50;13.20;;;8.53;;
11711;SDS011;5912;51.034;6.984;2022-12-18T15:21:19;14.43;;;9.10;;
11711;SDS011;5912;51.034;6.984;2022-12-18T15:23:46;13.80;;;8.90;;
11711;SDS011;5912;51.034;6.984;2022-12-18T15:26:15;13.33;;;8.80;;
11711;SDS011;5912;51.034;6.984;2022-12-18T15:28:51;16.10;;;9.20;;
11711;SDS011;5912;51.034;6.984;2022-12-18T15:31:32;13.53;;;9.13;;
11711;SDS011;5912;51.034;6.984;2022-12-18T15:34:09;14.43;;;8.83;;
11711;SDS011;5912;51.034;6.984;2022-12-18T15:36:39;13.47;;;9.03;;
11711;SDS011;5912;51.034;6.984;2022-12-18T15:39:05;12.77;;;8.77;;
11711;SDS011;5912;51.034;6.984;2022-12-18T15:41:31;14.30;;;9.57;;
11711;SDS011;5912;51.034;6.984;2022-12-18T15:44:01;14.47;;;8.80;;
11711;SDS011;5912;51.034;6.984;2022-12-18T15:46:27;13.63;;;8.93;;
11711;SDS011;5912;51.034;6.984;2022-12-18T15:48:56;14.17;;;8.33;;
11711;SDS011;5912;51.034;6.984;2022-12-18T15:51:29;14.80;;;9.50;;
11711;SDS011;5912;51.034;6.984;2022-12-18T15:53:58;13.67;;;8.97;;
11711;SDS011;5912;51.034;6.984;2022-12-18T15:59:35;16.30;;;9.27;;
11711;SDS011;5912;51.034;6.984;2022-12-18T16:02:00;15.47;;;9.30;;
11711;SDS011;5912;51.034;6.984;2022-12-18T16:04:25;14.57;;;9.80;;
11711;SDS011;5912;51.034;6.984;2022-12-18T16:06:51;15.97;;;10.30;;
11711;SDS011;5912;51.034;6.984;2022-12-18T16:09:19;16.70;;;9.77;;
11711;SDS011;5912;51.034;6.984;2022-12-18T16:11:44;14.87;;;9.87;;
11711;SDS011;5912;51.034;6.984;2022-12-18T16:16:58;16.40;;;10.07;;
11711;SDS011;5912;51.034;6.984;2022-12-18T16:19:26;17.20;;;11.10;;
11711;SDS011;5912;51.034;6.984;2022-12-18T16:21:52;19.10;;;10.03;;
11711;SDS011;5912;51.034;6.984;2022-12-18T16:24:21;16.93;;;10.57;;
11711;SDS011;5912;51.034;6.984;2022-12-18T16:26:49;14.90;;;10.00;;
11711;SDS011;5912;51.034;6.984;2022-12-18T16:29:19;16.27;;;10.47;;
11711;SDS011;5912;51.034;6.984;2022-12-18T16:31:49;16.63;;;10.43;;
11711;SDS011;5912;51.034;6.984;2022-12-18T16:36:53;17.60;;;10.30;;
11711;SDS011;5912;51.034;6.984;2022-12-18T16:39:19;25.80;;;17.37;;
11711;SDS011;5912;51.034;6.984;2022-12-18T16:41:45;17.07;;;11.13;;
11711;SDS011;5912;51.034;6.984;2022-12-18T16:44:10;15.23;;;10.03;;
11711;SDS011;5912;51.034;6.984;2022-12-18T16:46:36;18.20;;;11.43;;
11711;SDS011;5912;51.034;6.984;2022-12-18T16:49:02;16.20;;;10.53;;
11711;SDS011;5912;51.034;6.984;2022-12-18T16:51:28;19.80;;;11.30;;
11711;SDS011;5912;51.034;6.984;2022-12-18T16:53:54;18.17;;;11.43;;
11711;SDS011;5912;51.034;6.984;2022-12-18T16:56:20;20.37;;;12.47;;
11711;SDS011;5912;51.034;6.984;2022-12-18T16:58:55;16.43;;;11.00;;
11711;SDS011;5912;51.034;6.984;2022-12-18T17:01:22;18.03;;;10.80;;
11711;SDS011;5912;51.034;6.984;2022-12-18T17:03:52;17.00;;;11.37;;
11711;SDS011;5912;51.034;6.984;2022-12-18T17:06:18;15.80;;;11.00;;
11711;SDS011;5912;51.034;6.984;2022-12-18T17:08:43;19.50;;;11.43;;
11711;SDS011;5912;51.034;6.984;2022-12-18T17:11:09;17.50;;;11.33;;
11711;SDS011;5912;51.034;6.984;2022-12-18T17:13:34;16.30;;;10.97;;
11711;SDS011;5912;51.034;6.984;2022-12-18T17:16:03;19.30;;;11.90;;
11711;SDS011;5912;51.034;6.984;2022-12-18T17:18:30;20.00;;;11.67;;
11711;SDS011;5912;51.034;6.984;2022-12-18T17:21:03;17.87;;;10.40;;
11711;SDS011;5912;51.034;6.984;2022-12-18T17:23:31;20.77;;;11.47;;
11711;SDS011;5912;51.034;6.984;2022-12-18T17:25:56;18.63;;;11.80;;
11711;SDS011;5912;51.034;6.984;2022-12-18T17:28:22;19.30;;;12.10;;
11711;SDS011;5912;51.034;6.984;2022-12-18T17:30:50;17.87;;;11.67;;
11711;SDS011;5912;51.034;6.984;2022-12-18T17:33:16;20.33;;;12.23;;
11711;SDS011;5912;51.034;6.984;2022-12-18T17:35:41;18.60;;;11.47;;
11711;SDS011;5912;51.034;6.984;2022-12-18T17:38:06;19.77;;;11.70;;
11711;SDS011;5912;51.034;6.984;2022-12-18T17:40:33;17.20;;;11.77;;
11711;SDS011;5912;51.034;6.984;2022-12-18T17:42:59;18.93;;;11.70;;
11711;SDS011;5912;51.034;6.984;2022-12-18T17:45:24;21.13;;;12.10;;
11711;SDS011;5912;51.034;6.984;2022-12-18T17:47:49;18.37;;;11.17;;
11711;SDS011;5912;51.034;6.984;2022-12-18T17:50:15;21.50;;;12.27;;
11711;SDS011;5912;51.034;6.984;2022-12-18T17:52:40;20.00;;;11.37;;
11711;SDS011;5912;51.034;6.984;2022-12-18T17:55:06;18.43;;;11.37;;
11711;SDS011;5912;51.034;6.984;2022-12-18T17:57:31;19.40;;;12.07;;
11711;SDS011;5912;51.034;6.984;2022-12-18T17:59:56;17.67;;;11.57;;
11711;SDS011;5912;51.034;6.984;2022-12-18T18:02:22;22.50;;;12.57;;
11711;SDS011;5912;51.034;6.984;2022-12-18T18:04:47;19.10;;;12.13;;
11711;SDS011;5912;51.034;6.984;2022-12-18T18:07:12;20.33;;;11.87;;
11711;SDS011;5912;51.034;6.984;2022-12-18T18:09:38;20.67;;;12.60;;
11711;SDS011;5912;51.034;6.984;2022-12-18T18:12:03;19.50;;;12.10;;
11711;SDS011;5912;51.034;6.984;2022-12-18T18:14:47;20.93;;;12.33;;
11711;SDS011;5912;51.034;6.984;2022-12-18T18:17:12;19.63;;;12.17;;
11711;SDS011;5912;51.034;6.984;2022-12-18T18:19:38;20.20;;;12.63;;
11711;SDS011;5912;51.034;6.984;2022-12-18T18:22:03;21.90;;;12.03;;
11711;SDS011;5912;51.034;6.984;2022-12-18T18:24:28;22.90;;;13.20;;
11711;SDS011;5912;51.034;6.984;2022-12-18T18:26:54;20.90;;;12.70;;
11711;SDS011;5912;51.034;6.984;2022-12-18T18:29:20;19.67;;;12.10;;
11711;SDS011;5912;51.034;6.984;2022-12-18T18:31:48;19.63;;;11.73;;
11711;SDS011;5912;51.034;6.984;2022-12-18T18:34:14;24.37;;;13.33;;
11711;SDS011;5912;51.034;6.984;2022-12-18T18:36:44;19.47;;;12.23;;
11711;SDS011;5912;51.034;6.984;2022-12-18T18:39:10;19.57;;;12.07;;
11711;SDS011;5912;51.034;6.984;2022-12-18T18:41:36;22.30;;;12.83;;
11711;SDS011;5912;51.034;6.984;2022-12-18T18:44:01;20.57;;;11.87;;
11711;SDS011;5912;51.034;6.984;2022-12-18T18:46:27;20.43;;;12.50;;
11711;SDS011;5912;51.034;6.984;2022-12-18T18:48:52;19.57;;;12.13;;
11711;SDS011;5912;51.034;6.984;2022-12-18T18:51:19;23.07;;;13.03;;
11711;SDS011;5912;51.034;6.984;2022-12-18T18:53:45;19.70;;;12.27;;
11711;SDS011;5912;51.034;6.984;2022-12-18T18:56:12;20.30;;;12.10;;
11711;SDS011;5912;51.034;6.984;2022-12-18T18:58:38;19.53;;;11.87;;
11711;SDS011;5912;51.034;6.984;2022-12-18T19:01:09;22.43;;;12.70;;
11711;SDS011;5912;51.034;6.984;2022-12-18T19:03:36;20.60;;;11.93;;
11711;SDS011;5912;51.034;6.984;2022-12-18T19:06:02;23.73;;;12.13;;
11711;SDS011;5912;51.034;6.984;2022-12-18T19:08:30;21.07;;;12.33;;
11711;SDS011;5912;51.034;6.984;2022-12-18T19:10:59;18.97;;;11.83;;
11711;SDS011;5912;51.034;6.984;2022-12-18T19:13:26;21.03;;;12.17;;
11711;SDS011;5912;51.034;6.984;2022-12-18T19:15:55;21.53;;;12.90;;
11711;SDS011;5912;51.034;6.984;2022-12-18T19:18:27;21.60;;;11.93;;
11711;SDS011;5912;51.034;6.984;2022-12-18T19:20:53;23.23;;;13.03;;
11711;SDS011;5912;51.034;6.984;2022-12-18T19:23:22;17.43;;;11.57;;
11711;SDS011;5912;51.034;6.984;2022-12-18T19:25:48;22.77;;;12.20;;
11711;SDS011;5912;51.034;6.984;2022-12-18T19:28:13;20.83;;;10.97;;
11711;SDS011;5912;51.034;6.984;2022-12-18T19:30:39;19.30;;;11.93;;
11711;SDS011;5912;51.034;6.984;2022-12-18T19:33:04;19.30;;;11.57;;
11711;SDS011;5912;51.034;6.984;2022-12-18T19:35:30;19.23;;;11.57;;
11711;SDS011;5912;51.034;6.984;2022-12-18T19:37:56;20.60;;;12.70;;
11711;SDS011;5912;51.034;6.984;2022-12-18T19:40:21;20.53;;;12.07;;
11711;SDS011;5912;51.034;6.984;2022-12-18T19:42:46;21.77;;;11.70;;
11711;SDS011;5912;51.034;6.984;2022-12-18T19:45:12;19.47;;;11.77;;
11711;SDS011;5912;51.034;6.984;2022-12-18T19:47:37;22.17;;;12.27;;
11711;SDS011;5912;51.034;6.984;2022-12-18T19:50:02;20.37;;;12.07;;
11711;SDS011;5912;51.034;6.984;2022-12-18T19:52:28;22.83;;;12.73;;
11711;SDS011;5912;51.034;6.984;2022-12-18T19:54:53;22.30;;;12.10;;
11711;SDS011;5912;51.034;6.984;2022-12-18T19:57:19;23.67;;;12.10;;
11711;SDS011;5912;51.034;6.984;2022-12-18T19:59:44;21.97;;;11.83;;
11711;SDS011;5912;51.034;6.984;2022-12-18T20:02:12;18.93;;;11.17;;
11711;SDS011;5912;51.034;6.984;2022-12-18T20:04:38;20.13;;;12.33;;
11711;SDS011;5912;51.034;6.984;2022-12-18T20:07:04;22.70;;;12.73;;
11711;SDS011;5912;51.034;6.984;2022-12-18T20:09:29;20.53;;;11.87;;
11711;SDS011;5912;51.034;6.984;2022-12-18T20:11:54;20.73;;;12.43;;
11711;SDS011;5912;51.034;6.984;2022-12-18T20:14:20;22.37;;;12.77;;
11711;SDS011;5912;51.034;6.984;2022-12-18T20:16:45;22.30;;;11.90;;
11711;SDS011;5912;51.034;6.984;2022-12-18T20:19:11;19.33;;;11.47;;
11711;SDS011;5912;51.034;6.984;2022-12-18T20:21:37;18.73;;;11.70;;
11711;SDS011;5912;51.034;6.984;2022-12-18T20:24:03;21.53;;;11.87;;
11711;SDS011;5912;51.034;6.984;2022-12-18T20:26:28;22.90;;;12.30;;
11711;SDS011;5912;51.034;6.984;2022-12-18T20:28:54;20.60;;;11.90;;
11711;SDS011;5912;51.034;6.984;2022-12-18T20:31:19;20.53;;;11.83;;
11711;SDS011;5912;51.034;6.984;2022-12-18T20:33:45;21.83;;;12.27;;
11711;SDS011;5912;51.034;6.984;2022-12-18T20:36:14;22.67;;;12.60;;
11711;SDS011;5912;51.034;6.984;2022-12-18T20:38:41;20.27;;;12.53;;
11711;SDS011;5912;51.034;6.984;2022-12-18T20:41:11;21.60;;;12.20;;
11711;SDS011;5912;51.034;6.984;2022-12-18T20:43:41;20.17;;;11.93;;
11711;SDS011;5912;51.034;6.984;2022-12-18T20:46:08;22.83;;;12.20;;
11711;SDS011;5912;51.034;6.984;2022-12-18T20:48:40;21.47;;;12.23;;